createdAt,value
2018-05-09T00:00:12.896Z,44.2
2018-05-09T00:01:03.145Z,44.2
2018-05-09T00:01:52.945Z,44.2
2018-05-09T00:02:43.821Z,44.2
2018-05-09T00:03:33.657Z,44.2
2018-05-09T00:04:23.491Z,44.2
2018-05-09T00:05:13.998Z,44.1
2018-05-09T00:06:04.075Z,44.2
2018-05-09T00:06:54.108Z,44.2
2018-05-09T00:07:43.899Z,44.1
2018-05-09T00:08:34.258Z,44.1
2018-05-09T00:09:23.483Z,44.1
2018-05-09T00:10:14.493Z,44.1
2018-05-09T00:11:04.198Z,44.2
2018-05-09T00:11:54.771Z,44.1
2018-05-09T00:12:43.723Z,44.1
2018-05-09T00:13:34.645Z,44.1
2018-05-09T00:14:24.717Z,44.1
2018-05-09T00:15:14.260Z,44.1
2018-05-09T00:16:04.554Z,44.1
2018-05-09T00:16:54.637Z,44.1
2018-05-09T00:17:44.953Z,44.1
2018-05-09T00:18:34.758Z,44.1
2018-05-09T00:19:24.271Z,44.1
2018-05-09T00:20:14.605Z,44.1
2018-05-09T00:21:04.934Z,44.1
2018-05-09T00:21:55.006Z,44.1
2018-05-09T00:22:45.369Z,44.1
2018-05-09T00:23:35.174Z,44.1
2018-05-09T00:24:24.951Z,44.1
2018-05-09T00:25:15.352Z,44.1
2018-05-09T00:26:04.520Z,44.1
2018-05-09T00:26:55.429Z,44.1
2018-05-09T00:27:44.900Z,44.1
2018-05-09T00:28:35.553Z,44
2018-05-09T00:29:25.085Z,44
2018-05-09T00:30:15.672Z,44
2018-05-09T00:31:05.724Z,44
2018-05-09T00:31:55.519Z,44
2018-05-09T00:32:45.343Z,44
2018-05-09T00:33:35.922Z,44
2018-05-09T00:34:26.222Z,44
2018-05-09T00:35:16.045Z,44
2018-05-09T00:36:05.840Z,44
2018-05-09T00:36:56.160Z,43.9
2018-05-09T00:37:45.952Z,43.9
2018-05-09T00:38:35.784Z,43.9
2018-05-09T00:39:26.092Z,43.9
2018-05-09T00:40:16.696Z,43.9
2018-05-09T00:41:06.515Z,43.9
2018-05-09T00:41:56.578Z,43.9
2018-05-09T00:42:46.622Z,43.9
2018-05-09T00:43:36.691Z,43.9
2018-05-09T00:44:27.074Z,43.9
2018-05-09T00:45:16.263Z,43.9
2018-05-09T00:46:06.971Z,43.9
2018-05-09T00:46:56.659Z,43.9
2018-05-09T00:47:47.299Z,43.9
2018-05-09T00:48:37.374Z,43.9
2018-05-09T00:49:27.455Z,43.9
2018-05-09T00:50:17.877Z,43.9
2018-05-09T00:51:06.707Z,43.9
2018-05-09T00:51:57.074Z,43.9
2018-05-09T00:52:47.503Z,43.9
2018-05-09T00:53:37.724Z,43.9
2018-05-09T00:54:27.532Z,43.8
2018-05-09T00:55:17.325Z,43.8
2018-05-09T00:56:07.658Z,43.8
2018-05-09T00:56:58.104Z,43.8
2018-05-09T00:57:47.846Z,43.8
2018-05-09T00:58:37.583Z,43.8
2018-05-09T00:59:27.349Z,43.8
2018-05-09T01:00:18.271Z,43.8
2018-05-09T01:01:08.011Z,43.8
2018-05-09T01:01:58.405Z,43.8
2018-05-09T01:02:48.176Z,43.8
2018-05-09T01:03:38.349Z,43.8
2018-05-09T01:04:28.273Z,43.8
2018-05-09T01:05:18.333Z,43.8
2018-05-09T01:06:08.677Z,43.8
2018-05-09T01:06:58.736Z,43.8
2018-05-09T01:07:47.713Z,43.8
2018-05-09T01:08:37.745Z,43.8
2018-05-09T01:09:28.967Z,43.8
2018-05-09T01:10:18.416Z,43.8
2018-05-09T01:11:09.061Z,43.7
2018-05-09T01:11:58.856Z,43.8
2018-05-09T01:12:48.354Z,43.7
2018-05-09T01:13:38.970Z,43.7
2018-05-09T01:14:29.077Z,43.7
2018-05-09T01:15:18.846Z,43.7
2018-05-09T01:16:09.172Z,43.7
2018-05-09T01:16:59.217Z,43.7
2018-05-09T01:17:49.596Z,43.7
2018-05-09T01:18:39.367Z,43.7
2018-05-09T01:19:29.470Z,43.6
2018-05-09T01:20:19.266Z,43.6
2018-05-09T01:21:09.856Z,43.6
2018-05-09T01:21:59.642Z,43.6
2018-05-09T01:22:49.132Z,43.6
2018-05-09T01:23:40.020Z,43.6
2018-05-09T01:24:29.338Z,43.6
2018-05-09T01:25:19.868Z,43.6
2018-05-09T01:26:09.758Z,43.6
2018-05-09T01:27:00.320Z,43.6
2018-05-09T01:27:49.792Z,43.6
2018-05-09T01:28:40.392Z,43.6
2018-05-09T01:29:29.703Z,43.6
2018-05-09T01:30:20.541Z,43.6
2018-05-09T01:31:10.315Z,43.6
2018-05-09T01:32:00.449Z,43.6
2018-05-09T01:32:50.736Z,43.6
2018-05-09T01:33:40.804Z,43.6
2018-05-09T01:34:30.943Z,43.5
2018-05-09T01:35:20.681Z,43.5
2018-05-09T01:36:10.438Z,43.5
2018-05-09T01:37:00.792Z,43.5
2018-05-09T01:37:50.289Z,43.5
2018-05-09T01:38:40.904Z,43.5
2018-05-09T01:39:31.009Z,43.5
2018-05-09T01:40:21.049Z,43.5
2018-05-09T01:41:10.260Z,43.5
2018-05-09T01:42:01.239Z,43.5
2018-05-09T01:42:51.253Z,43.5
2018-05-09T01:43:41.574Z,43.5
2018-05-09T01:44:30.535Z,43.5
2018-05-09T01:45:21.144Z,43.4
2018-05-09T01:46:11.526Z,43.4
2018-05-09T01:47:01.550Z,43.4
2018-05-09T01:47:51.638Z,43.4
2018-05-09T01:48:41.716Z,43.4
2018-05-09T01:49:31.191Z,43.4
2018-05-09T01:50:21.004Z,43.4
2018-05-09T01:51:11.021Z,43.4
2018-05-09T01:52:01.978Z,43.4
2018-05-09T01:52:52.065Z,43.4
2018-05-09T01:53:42.131Z,43.4
2018-05-09T01:54:32.402Z,43.4
2018-05-09T01:55:21.998Z,43.4
2018-05-09T01:56:12.256Z,43.4
2018-05-09T01:57:02.066Z,43.4
2018-05-09T01:57:52.201Z,43.4
2018-05-09T01:58:42.130Z,43.4
2018-05-09T01:59:32.543Z,43.4
2018-05-09T02:00:22.831Z,43.4
2018-05-09T02:01:12.900Z,43.4
2018-05-09T02:02:03.005Z,43.4
2018-05-09T02:02:52.752Z,43.4
2018-05-09T02:03:43.097Z,43.4
2018-05-09T02:04:32.869Z,43.5
2018-05-09T02:05:22.670Z,43.6
2018-05-09T02:06:14.695Z,43.6
2018-05-09T02:07:03.114Z,43.7
2018-05-09T02:07:53.413Z,43.7
2018-05-09T02:08:43.206Z,43.8
2018-05-09T02:09:33.276Z,43.8
2018-05-09T02:10:23.711Z,43.8
2018-05-09T02:11:13.387Z,43.9
2018-05-09T02:12:03.465Z,43.9
2018-05-09T02:12:53.819Z,43.9
2018-05-09T02:13:43.607Z,43.9
2018-05-09T02:14:33.402Z,43.9
2018-05-09T02:15:23.729Z,43.9
2018-05-09T02:16:13.846Z,44
2018-05-09T02:17:04.146Z,44
2018-05-09T02:17:53.935Z,44
2018-05-09T02:18:43.706Z,44
2018-05-09T02:19:34.297Z,44
2018-05-09T02:20:23.572Z,44.1
2018-05-09T02:21:14.433Z,44.1
2018-05-09T02:22:04.523Z,44.1
2018-05-09T02:22:54.272Z,44.2
2018-05-09T02:23:44.389Z,44.2
2018-05-09T02:24:34.690Z,44.2
2018-05-09T02:25:24.548Z,44.2
2018-05-09T02:26:14.839Z,44.3
2018-05-09T02:27:04.638Z,44.3
2018-05-09T02:27:54.990Z,44.3
2018-05-09T02:28:45.031Z,44.3
2018-05-09T02:29:34.531Z,44.3
2018-05-09T02:30:24.596Z,44.3
2018-05-09T02:31:15.600Z,44.3
2018-05-09T02:32:04.757Z,44.3
2018-05-09T02:32:54.801Z,44.3
2018-05-09T02:33:44.895Z,44.3
2018-05-09T04:37:21.779Z,43.6
2018-05-09T04:38:11.847Z,43.6
2018-05-09T04:39:00.998Z,43.6
2018-05-09T04:39:51.892Z,43.7
2018-05-09T04:40:41.991Z,43.7
2018-05-09T04:41:31.408Z,43.7
2018-05-09T04:42:21.808Z,43.7
2018-05-09T04:43:12.100Z,43.7
2018-05-09T04:44:01.597Z,43.6
2018-05-09T04:44:52.014Z,43.6
2018-05-09T04:45:41.806Z,43.5
2018-05-09T04:46:32.147Z,43.4
2018-05-09T04:47:22.520Z,43.4
2018-05-09T04:48:12.488Z,43.3
2018-05-09T04:49:02.532Z,43.3
2018-05-09T04:49:52.600Z,43.2
2018-05-09T04:50:42.667Z,43.2
2018-05-09T04:51:32.458Z,43.1
2018-05-09T04:52:22.792Z,43.1
2018-05-09T04:53:12.560Z,43
2018-05-09T04:54:02.935Z,42.9
2018-05-09T04:54:52.424Z,42.9
2018-05-09T04:55:45.202Z,43
2018-05-09T04:56:32.826Z,43.1
2018-05-09T04:57:22.588Z,43.1
2018-05-09T04:58:12.658Z,43.1
2018-05-09T04:59:02.470Z,43.1
2018-05-09T04:59:53.338Z,43.1
2018-05-09T05:00:43.427Z,43.2
2018-05-09T05:01:33.495Z,43.2
2018-05-09T05:02:23.277Z,43.3
2018-05-09T05:03:13.331Z,43.3
2018-05-09T05:04:03.663Z,43.3
2018-05-09T05:04:53.753Z,43.3
2018-05-09T05:05:43.267Z,43.3
2018-05-09T05:06:33.831Z,43.4
2018-05-09T05:07:23.704Z,43.4
2018-05-09T05:08:14.007Z,43.4
2018-05-09T05:09:03.767Z,43.4
2018-05-09T05:09:54.065Z,43.4
2018-05-09T05:10:43.833Z,43.4
2018-05-09T05:11:33.920Z,43.4
2018-05-09T05:12:23.213Z,43.4
2018-05-09T05:13:14.313Z,43.4
2018-05-09T05:14:04.150Z,43.4
2018-05-09T05:14:54.153Z,43.4
2018-05-09T05:15:44.715Z,43.4
2018-05-09T05:16:34.558Z,43.4
2018-05-09T05:17:24.135Z,43.4
2018-05-09T05:18:14.152Z,43.4
2018-05-09T05:19:03.935Z,43.4
2018-05-09T05:19:54.894Z,43.3
2018-05-09T05:20:44.589Z,43.3
2018-05-09T05:21:34.632Z,43.3
2018-05-09T05:22:24.435Z,43.3
2018-05-09T05:23:14.519Z,43.3
2018-05-09T05:24:04.603Z,43.3
2018-05-09T05:24:54.910Z,43.3
2018-05-09T05:25:45.298Z,43.3
2018-05-09T05:26:34.608Z,43.3
2018-05-09T05:27:25.147Z,43.3
2018-05-09T05:28:14.900Z,43.3
2018-05-09T05:29:05.253Z,43.3
2018-05-09T05:29:55.650Z,43.3
2018-05-09T05:30:45.627Z,43.3
2018-05-09T05:31:35.736Z,43.3
2018-05-09T05:32:25.473Z,43.3
2018-05-09T05:33:15.552Z,43.3
2018-05-09T05:34:05.568Z,43.3
2018-05-09T05:34:55.104Z,43.3
2018-05-09T05:35:45.715Z,43.3
2018-05-09T05:36:35.832Z,31.8
2018-05-09T05:37:26.110Z,28
2018-05-09T05:38:15.711Z,27.6
2018-05-09T05:39:06.244Z,27.9
2018-05-09T05:39:56.293Z,28.3
2018-05-09T05:40:46.360Z,29
2018-05-09T05:41:35.950Z,29.9
2018-05-09T05:42:25.959Z,30.9
2018-05-09T05:43:16.271Z,33.4
2018-05-09T05:44:06.371Z,36.9
2018-05-09T05:44:56.435Z,38.4
2018-05-09T05:45:46.217Z,38.9
2018-05-09T05:46:36.328Z,38.9
2018-05-09T05:47:26.302Z,38.8
2018-05-09T05:48:16.970Z,38.7
2018-05-09T05:49:05.931Z,38.8
2018-05-09T05:49:57.072Z,39.1
2018-05-09T05:50:47.170Z,39.3
2018-05-09T05:51:37.224Z,39.3
2018-05-09T05:52:26.412Z,39.1
2018-05-09T05:53:16.560Z,38.9
2018-05-09T05:54:07.185Z,40.4
2018-05-09T05:54:57.186Z,41.3
2018-05-09T05:55:47.501Z,41.4
2018-05-09T05:56:37.247Z,41.3
2018-05-09T05:57:27.308Z,41.6
2018-05-09T05:58:17.700Z,43.2
2018-05-09T05:59:07.751Z,44.3
2018-05-09T05:59:57.282Z,44.8
2018-05-09T06:00:47.872Z,45.1
2018-05-09T06:01:37.428Z,45.3
2018-05-09T06:02:27.716Z,45.7
2018-05-09T06:03:17.018Z,46.1
2018-05-09T06:04:07.827Z,46.4
2018-05-09T06:04:57.904Z,46.8
2018-05-09T06:05:47.988Z,46.9
2018-05-09T06:06:37.786Z,47.1
2018-05-09T06:07:27.607Z,47.3
2018-05-09T06:08:18.429Z,47.6
2018-05-09T06:09:07.746Z,47.8
2018-05-09T06:09:58.090Z,47.9
2018-05-09T06:10:48.083Z,48.1
2018-05-09T06:11:38.161Z,48.3
2018-05-09T06:12:28.775Z,48.4
2018-05-09T06:13:18.541Z,48.6
2018-05-09T06:14:08.599Z,48.7
2018-05-09T06:14:58.082Z,48.9
2018-05-09T06:15:48.430Z,49
2018-05-09T06:16:38.867Z,49.1
2018-05-09T06:17:28.891Z,49.3
2018-05-09T06:18:18.893Z,49.4
2018-05-09T06:19:08.984Z,49.6
2018-05-09T06:19:59.003Z,49.7
2018-05-09T06:20:49.133Z,49.9
2018-05-09T06:21:39.168Z,50
2018-05-09T06:22:28.979Z,50.1
2018-05-09T06:23:18.814Z,50.3
2018-05-09T06:24:10.611Z,50.4
2018-05-09T06:24:59.479Z,50.6
2018-05-09T06:25:49.488Z,50.7
2018-05-09T06:26:39.268Z,50.8
2018-05-09T06:27:29.640Z,51
2018-05-09T06:28:19.699Z,51.1
2018-05-09T06:29:09.768Z,51.3
2018-05-09T06:29:59.837Z,51.4
2018-05-09T06:30:50.353Z,51.5
2018-05-09T06:31:39.640Z,51.6
2018-05-09T06:32:29.723Z,51.7
2018-05-09T06:33:19.808Z,51.8
2018-05-09T06:34:10.047Z,51.9
2018-05-09T06:35:00.209Z,52
2018-05-09T06:35:49.708Z,52.1
2018-05-09T06:36:40.061Z,52.2
2018-05-09T06:37:30.667Z,52.3
2018-05-09T06:38:20.745Z,52.5
2018-05-09T06:39:09.738Z,52.6
2018-05-09T06:40:00.921Z,52.7
2018-05-09T06:40:50.739Z,52.9
2018-05-09T06:41:41.247Z,52.9
2018-05-09T06:42:30.438Z,53.1
2018-05-09T06:43:20.829Z,53.2
2018-05-09T06:44:09.770Z,53.3
2018-05-09T06:45:00.397Z,53.4
2018-05-09T06:45:50.433Z,53.5
2018-05-09T06:46:40.662Z,53.6
2018-05-09T06:47:31.169Z,53.7
2018-05-09T06:48:21.525Z,53.8
2018-05-09T06:49:11.267Z,53.9
2018-05-09T06:50:02.176Z,54.1
2018-05-09T06:50:51.416Z,54.1
2018-05-09T06:51:41.214Z,54.3
2018-05-09T06:52:31.264Z,54.4
2018-05-09T06:53:21.064Z,54.5
2018-05-09T06:54:10.355Z,54.7
2018-05-09T06:55:01.761Z,54.8
2018-05-09T06:55:51.308Z,54.9
2018-05-09T06:56:41.558Z,55
2018-05-09T06:57:31.650Z,55.1
2018-05-09T06:58:21.728Z,55.2
2018-05-09T06:59:12.579Z,55.3
2018-05-09T07:00:02.006Z,55.4
2018-05-09T07:00:51.996Z,55.6
2018-05-09T07:01:42.024Z,55.7
2018-05-09T07:02:32.586Z,55.8
2018-05-09T07:03:22.163Z,55.9
2018-05-09T07:04:12.739Z,56.1
2018-05-09T07:05:02.525Z,56.1
2018-05-09T07:05:52.554Z,56.3
2018-05-09T07:06:47.816Z,56.4
2018-05-09T07:07:32.398Z,56.4
2018-05-09T07:08:22.787Z,56.6
2018-05-09T07:09:12.806Z,56.6
2018-05-09T07:10:02.307Z,56.7
2018-05-09T07:10:53.353Z,56.8
2018-05-09T07:11:42.568Z,56.9
2018-05-09T07:12:33.068Z,56.9
2018-05-09T07:13:23.145Z,57.1
2018-05-09T07:14:13.299Z,57.2
2018-05-09T07:15:03.519Z,57.3
2018-05-09T07:15:53.059Z,57.3
2018-05-09T07:16:43.373Z,57.4
2018-05-09T07:17:33.153Z,57.6
2018-05-09T07:18:23.212Z,57.7
2018-05-09T07:19:13.624Z,57.8
2018-05-09T07:20:03.346Z,57.9
2018-05-09T07:20:53.731Z,58.1
2018-05-09T07:21:43.467Z,58.2
2018-05-09T07:22:33.574Z,58.3
2018-05-09T07:23:23.865Z,58.4
2018-05-09T07:24:13.703Z,58.5
2018-05-09T07:25:03.741Z,58.6
2018-05-09T07:25:53.812Z,58.8
2018-05-09T07:26:44.407Z,58.9
2018-05-09T07:27:34.191Z,59.1
2018-05-09T07:28:24.287Z,59.2
2018-05-09T07:29:14.067Z,59.3
2018-05-09T07:30:04.138Z,59.4
2018-05-09T07:30:54.738Z,59.6
2018-05-09T07:31:44.192Z,59.8
2018-05-09T07:32:34.848Z,59.8
2018-05-09T07:33:24.451Z,59.9
2018-05-09T07:34:14.723Z,60.1
2018-05-09T07:35:05.090Z,60.3
2018-05-09T07:35:54.470Z,60.4
2018-05-09T07:36:44.731Z,60.5
2018-05-09T07:37:35.237Z,60.6
2018-05-09T07:38:24.488Z,60.8
2018-05-09T07:39:14.328Z,61
2018-05-09T07:40:05.474Z,61.1
2018-05-09T07:40:55.305Z,61.3
2018-05-09T07:41:44.818Z,61.5
2018-05-09T07:42:35.334Z,61.6
2018-05-09T07:43:25.690Z,61.8
2018-05-09T07:44:14.807Z,61.9
2018-05-09T07:45:05.574Z,62.1
2018-05-09T07:45:55.625Z,62.3
2018-05-09T07:46:45.947Z,62.4
2018-05-09T07:47:36.106Z,62.5
2018-05-09T07:48:25.276Z,62.6
2018-05-09T07:49:14.814Z,62.8
2018-05-09T07:50:05.731Z,62.9
2018-05-09T07:50:56.059Z,63
2018-05-09T07:51:45.784Z,63.1
2018-05-09T07:52:36.129Z,63.3
2018-05-09T07:53:25.987Z,63.4
2018-05-09T07:54:16.055Z,63.4
2018-05-09T07:55:05.855Z,63.6
2018-05-09T07:55:56.626Z,63.7
2018-05-09T07:56:46.649Z,63.8
2018-05-09T07:57:35.539Z,63.9
2018-05-09T07:58:26.582Z,64
2018-05-09T07:59:16.618Z,64.1
2018-05-09T08:00:07.014Z,64.2
2018-05-09T08:00:56.452Z,64.3
2018-05-09T08:01:46.829Z,64.4
2018-05-09T08:02:36.626Z,64.5
2018-05-09T08:03:25.757Z,64.6
2018-05-09T08:04:16.780Z,64.7
2018-05-09T08:05:06.873Z,64.8
2018-05-09T08:05:56.560Z,64.9
2018-05-09T08:06:46.734Z,65.1
2018-05-09T08:07:36.987Z,65.2
2018-05-09T08:08:27.645Z,65.3
2018-05-09T08:09:17.658Z,65.4
2018-05-09T08:10:07.229Z,65.6
2018-05-09T08:10:57.542Z,65.7
2018-05-09T08:11:47.884Z,65.8
2018-05-09T08:12:36.614Z,65.9
2018-05-09T08:13:27.176Z,66
2018-05-09T08:14:17.033Z,66.1
2018-05-09T08:15:06.994Z,66.2
2018-05-09T08:15:56.976Z,66.3
2018-05-09T08:16:47.351Z,66.4
2018-05-09T08:17:37.807Z,66.4
2018-05-09T08:18:27.707Z,66.6
2018-05-09T08:19:18.205Z,66.6
2018-05-09T08:20:07.779Z,66.7
2018-05-09T08:20:58.576Z,66.8
2018-05-09T08:21:48.660Z,66.9
2018-05-09T08:22:38.151Z,66.9
2018-05-09T08:23:28.907Z,67
2018-05-09T08:24:18.855Z,67.1
2018-05-09T08:25:09.191Z,67.3
2018-05-09T08:25:58.957Z,67.3
2018-05-09T08:26:47.407Z,67.4
2018-05-09T08:27:38.604Z,67.5
2018-05-09T08:28:27.941Z,67.6
2018-05-09T08:29:19.217Z,67.7
2018-05-09T08:30:09.443Z,67.8
2018-05-09T08:30:58.615Z,67.9
2018-05-09T08:31:48.620Z,68
2018-05-09T08:32:39.545Z,68.1
2018-05-09T08:33:29.296Z,68.2
2018-05-09T08:34:19.369Z,68.3
2018-05-09T08:35:09.715Z,68.3
2018-05-09T08:35:59.766Z,68.3
2018-05-09T08:36:49.952Z,68.4
2018-05-09T08:37:39.663Z,68.5
2018-05-09T08:38:29.339Z,68.6
2018-05-09T08:39:19.740Z,68.7
2018-05-09T08:40:10.155Z,68.8
2018-05-09T08:41:00.169Z,68.9
2018-05-09T08:41:49.931Z,69.1
2018-05-09T08:42:40.048Z,69.2
2018-05-09T08:43:31.422Z,69.3
2018-05-09T08:44:19.843Z,69.3
2018-05-09T08:45:10.232Z,69.4
2018-05-09T08:45:59.408Z,69.5
2018-05-09T08:46:50.006Z,69.6
2018-05-09T08:47:40.349Z,69.7
2018-05-09T08:48:30.453Z,69.8
2018-05-09T08:49:21.561Z,69.9
2018-05-09T08:50:10.840Z,69.9
2018-05-09T08:51:00.883Z,70.1
2018-05-09T08:51:50.708Z,70.1
2018-05-09T08:52:41.029Z,70.2
2018-05-09T08:53:31.117Z,70.3
2018-05-09T08:54:20.901Z,70.4
2018-05-09T08:55:10.944Z,70.4
2018-05-09T08:56:00.740Z,70.5
2018-05-09T08:56:51.097Z,70.6
2018-05-09T08:57:40.883Z,70.7
2018-05-09T08:58:31.530Z,70.8
2018-05-09T08:59:21.284Z,70.9
2018-05-09T09:00:10.806Z,70.9
2018-05-09T09:01:01.429Z,71.1
2018-05-09T09:01:49.626Z,71.1
2018-05-09T09:02:40.978Z,71.3
2018-05-09T09:03:31.884Z,71.4
2018-05-09T09:04:22.286Z,71.4
2018-05-09T09:05:10.909Z,71.5
2018-05-09T09:06:02.089Z,71.6
2018-05-09T09:06:51.853Z,71.6
2018-05-09T09:07:42.220Z,71.6
2018-05-09T09:08:32.230Z,71.6
2018-05-09T09:09:21.543Z,71.7
2018-05-09T09:10:11.651Z,71.8
2018-05-09T09:11:01.697Z,71.8
2018-05-09T09:11:52.230Z,71.9
2018-05-09T09:12:42.303Z,72
2018-05-09T09:13:32.355Z,72.1
2018-05-09T09:14:22.303Z,72.1
2018-05-09T09:15:12.475Z,72.3
2018-05-09T09:16:02.307Z,72.3
2018-05-09T09:16:52.592Z,72.4
2018-05-09T09:17:42.681Z,72.5
2018-05-09T09:18:33.295Z,72.6
2018-05-09T09:19:22.550Z,72.8
2018-05-09T09:20:13.259Z,72.8
2018-05-09T09:21:03.185Z,72.9
2018-05-09T09:21:53.380Z,73
2018-05-09T09:22:43.120Z,73.1
2018-05-09T09:23:32.866Z,73.1
2018-05-09T09:24:22.382Z,73.2
2018-05-09T09:25:12.432Z,73.3
2018-05-09T09:26:03.308Z,73.3
2018-05-09T09:26:53.660Z,73.4
2018-05-09T09:27:42.912Z,73.4
2018-05-09T09:28:33.506Z,73.5
2018-05-09T09:29:23.741Z,73.5
2018-05-09T09:30:13.999Z,73.4
2018-05-09T09:31:03.774Z,73.4
2018-05-09T09:31:53.811Z,73.4
2018-05-09T09:32:43.880Z,73.4
2018-05-09T09:33:33.955Z,73.4
2018-05-09T09:34:23.997Z,73.5
2018-05-09T09:35:13.533Z,73.6
2018-05-09T09:36:03.612Z,73.7
2018-05-09T09:36:54.207Z,73.8
2018-05-09T09:37:44.308Z,73.9
2018-05-09T09:38:34.334Z,74
2018-05-09T09:39:24.741Z,74.1
2018-05-09T09:40:14.796Z,74.2
2018-05-09T09:41:04.597Z,74.3
2018-05-09T09:41:54.959Z,74.4
2018-05-09T09:42:44.343Z,74.5
2018-05-09T09:43:34.963Z,74.6
2018-05-09T09:44:24.565Z,74.7
2018-05-09T09:45:14.793Z,74.8
2018-05-09T09:46:04.599Z,74.9
2018-05-09T09:46:55.226Z,74.9
2018-05-09T09:47:45.002Z,75
2018-05-09T09:48:35.104Z,75
2018-05-09T09:49:25.420Z,75.1
2018-05-09T09:50:15.455Z,75.1
2018-05-09T09:51:05.264Z,75.3
2018-05-09T09:51:55.120Z,75.3
2018-05-09T09:52:45.379Z,75.4
2018-05-09T09:53:35.769Z,75.4
2018-05-09T09:54:25.046Z,75.5
2018-05-09T09:55:15.606Z,75.6
2018-05-09T09:56:05.108Z,75.6
2018-05-09T09:56:55.979Z,75.7
2018-05-09T09:57:45.490Z,75.8
2018-05-09T09:58:35.911Z,75.9
2018-05-09T09:59:26.301Z,75.9
2018-05-09T10:00:15.395Z,76.1
2018-05-09T10:01:06.336Z,76.1
2018-05-09T10:01:56.373Z,76.2
2018-05-09T10:02:46.170Z,76.3
2018-05-09T10:03:36.239Z,76.3
2018-05-09T10:04:26.659Z,76.3
2018-05-09T10:05:16.776Z,76.4
2018-05-09T10:06:06.162Z,76.5
2018-05-09T10:06:56.787Z,76.6
2018-05-09T10:07:46.806Z,76.6
2018-05-09T10:08:36.333Z,76.6
2018-05-09T10:09:26.660Z,76.7
2018-05-09T10:10:16.458Z,76.8
2018-05-09T10:11:06.235Z,76.8
2018-05-09T10:11:56.576Z,76.9
2018-05-09T10:12:46.945Z,76.9
2018-05-09T10:13:37.288Z,77
2018-05-09T10:14:27.358Z,77.1
2018-05-09T10:15:16.828Z,77.1
2018-05-09T10:16:08.328Z,77.2
2018-05-09T10:16:57.241Z,77.2
2018-05-09T10:17:47.053Z,77.3
2018-05-09T10:18:37.640Z,77.3
2018-05-09T10:19:27.419Z,77.3
2018-05-09T10:20:17.811Z,77.3
2018-05-09T10:21:07.110Z,77.4
2018-05-09T10:21:57.921Z,77.4
2018-05-09T10:22:47.992Z,77.4
2018-05-09T10:23:37.742Z,77
2018-05-09T10:24:27.532Z,76
2018-05-09T10:25:17.682Z,75
2018-05-09T10:26:08.330Z,75.4
2018-05-09T10:26:57.808Z,78.9
2018-05-09T10:27:48.090Z,80.6
2018-05-09T10:28:38.147Z,80.1
2018-05-09T10:29:28.235Z,78.8
2018-05-09T10:30:17.996Z,77.9
2018-05-09T10:31:08.442Z,77.7
2018-05-09T10:31:58.560Z,77.9
2018-05-09T10:32:48.480Z,78.3
2018-05-09T10:33:38.316Z,78.4
2018-05-09T10:34:28.951Z,78.3
2018-05-09T10:35:18.444Z,78.3
2018-05-09T10:36:08.753Z,78.3
2018-05-09T10:36:58.050Z,78.3
2018-05-09T10:37:48.859Z,78.3
2018-05-09T10:38:39.215Z,78.4
2018-05-09T10:39:28.221Z,78.4
2018-05-09T10:40:19.045Z,78.3
2018-05-09T10:41:09.378Z,78.3
2018-05-09T10:41:59.501Z,78.3
2018-05-09T10:42:48.960Z,78.3
2018-05-09T10:43:39.570Z,78.4
2018-05-09T10:44:29.652Z,78.4
2018-05-09T10:45:19.772Z,78.5
2018-05-09T10:46:09.240Z,78.6
2018-05-09T10:46:59.580Z,78.7
2018-05-09T10:47:49.347Z,78.8
2018-05-09T10:48:39.437Z,78.9
2018-05-09T10:49:29.746Z,78.9
2018-05-09T10:50:20.097Z,79
2018-05-09T10:51:09.623Z,79.1
2018-05-09T10:51:59.981Z,79.2
2018-05-09T10:52:50.011Z,79.3
2018-05-09T10:53:40.371Z,79.3
2018-05-09T10:54:30.186Z,79.4
2018-05-09T10:55:20.471Z,79.4
2018-05-09T10:56:10.531Z,79.5
2018-05-09T10:57:00.324Z,79.6
2018-05-09T10:57:50.119Z,79.6
2018-05-09T10:58:40.456Z,79.7
2018-05-09T10:59:30.865Z,79.7
2018-05-09T11:00:20.600Z,79.7
2018-05-09T11:01:10.115Z,79.6
2018-05-09T11:02:00.728Z,79.6
2018-05-09T11:02:50.211Z,79.7
2018-05-09T11:03:40.866Z,79.7
2018-05-09T11:04:30.921Z,79.8
2018-05-09T11:05:20.982Z,79.8
2018-05-09T11:06:10.767Z,79.8
2018-05-09T11:07:00.844Z,79.9
2018-05-09T11:07:50.651Z,79.9
2018-05-09T11:08:40.689Z,79.9
2018-05-09T11:09:31.317Z,79.8
2018-05-09T11:10:21.112Z,79.9
2018-05-09T11:11:11.165Z,79.9
2018-05-09T11:12:01.799Z,79.9
2018-05-09T11:12:51.830Z,79.9
2018-05-09T11:13:41.925Z,79.9
2018-05-09T11:14:31.972Z,79.9
2018-05-09T11:15:22.034Z,79.9
2018-05-09T11:16:11.516Z,79.9
2018-05-09T11:17:01.858Z,79.9
2018-05-09T11:17:51.358Z,79.9
2018-05-09T11:18:41.729Z,79.9
2018-05-09T11:19:31.613Z,80
2018-05-09T11:20:21.876Z,80
2018-05-09T11:21:12.475Z,80
2018-05-09T11:22:02.323Z,80
2018-05-09T11:22:52.694Z,80.1
2018-05-09T11:23:42.460Z,80.1
2018-05-09T11:25:22.226Z,80.3
2018-05-09T11:26:12.583Z,80.3
2018-05-09T11:27:02.648Z,80.4
2018-05-09T11:27:52.424Z,80.4
2018-05-09T11:28:42.573Z,80.5
2018-05-09T11:29:32.832Z,80.5
2018-05-09T11:30:22.632Z,80.6
2018-05-09T11:31:12.985Z,80.6
2018-05-09T11:32:02.834Z,80.6
2018-05-09T11:32:53.130Z,80.6
2018-05-09T11:33:43.188Z,80.6
2018-05-09T11:34:33.588Z,80.7
2018-05-09T11:35:23.551Z,80.7
2018-05-09T11:36:12.902Z,80.7
2018-05-09T11:37:03.429Z,80.7
2018-05-09T11:37:53.228Z,80.8
2018-05-09T11:38:43.864Z,80.8
2018-05-09T11:39:33.126Z,80.8
2018-05-09T11:40:23.682Z,80.8
2018-05-09T11:41:13.734Z,80.8
2018-05-09T11:42:03.846Z,80.8
2018-05-09T11:42:53.873Z,80.8
2018-05-09T11:43:44.245Z,80.8
2018-05-09T11:44:34.317Z,80.8
2018-05-09T11:45:24.105Z,80.8
2018-05-09T11:46:14.473Z,80.8
2018-05-09T11:47:03.393Z,80.8
2018-05-09T11:47:54.230Z,80.8
2018-05-09T11:48:44.047Z,80.8
2018-05-09T11:49:33.566Z,80.7
2018-05-09T11:50:24.745Z,80.7
2018-05-09T11:51:14.548Z,80.6
2018-05-09T11:52:04.616Z,80.5
2018-05-09T11:52:54.193Z,80.4
2018-05-09T11:53:45.045Z,80.4
2018-05-09T11:54:34.766Z,80.4
2018-05-09T11:55:24.313Z,80.4
2018-05-09T11:56:14.638Z,80.4
2018-05-09T11:57:05.220Z,80.4
2018-05-09T11:57:55.080Z,80.3
2018-05-09T11:58:45.349Z,80.4
2018-05-09T11:59:35.439Z,80.3
2018-05-09T12:00:25.494Z,80.3
2018-05-09T12:01:15.600Z,80.3
2018-05-09T12:02:05.403Z,80.3
2018-05-09T12:02:54.869Z,80.3
2018-05-09T12:03:45.520Z,80.3
2018-05-09T12:04:35.545Z,80.4
2018-05-09T12:05:25.345Z,80.4
2018-05-09T12:06:15.523Z,80.4
2018-05-09T12:07:06.076Z,80.4
2018-05-09T12:07:55.595Z,80.4
2018-05-09T12:08:45.620Z,80.4
2018-05-09T12:09:35.398Z,80.4
2018-05-09T12:10:27.839Z,80.5
2018-05-09T12:11:16.379Z,80.5
2018-05-09T12:12:06.412Z,80.5
2018-05-09T12:12:55.960Z,80.6
2018-05-09T12:13:46.573Z,80.6
2018-05-09T12:14:35.777Z,80.6
2018-05-09T12:15:26.138Z,80.6
2018-05-09T12:16:15.885Z,80.6
2018-05-09T12:17:06.787Z,80.6
2018-05-09T12:17:56.853Z,80.6
2018-05-09T12:18:46.690Z,80.6
2018-05-09T12:19:35.873Z,80.6
2018-05-09T12:20:26.609Z,80.5
2018-05-09T12:21:16.326Z,80.5
2018-05-09T12:22:06.987Z,80.5
2018-05-09T12:22:57.070Z,80.4
2018-05-09T12:23:46.574Z,80.4
2018-05-09T12:24:38.243Z,80.4
2018-05-09T12:25:26.606Z,80.3
2018-05-09T12:26:17.285Z,80.3
2018-05-09T12:27:07.107Z,80.3
2018-05-09T12:27:57.367Z,80.3
2018-05-09T12:28:47.736Z,80.3
2018-05-09T12:30:27.587Z,80
2018-05-09T12:31:17.636Z,79.8
2018-05-09T12:32:07.689Z,79.6
2018-05-09T12:32:58.052Z,79.6
2018-05-09T12:33:47.852Z,79.5
2018-05-09T12:34:38.176Z,79.4
2018-05-09T12:35:27.648Z,79.4
2018-05-09T12:36:17.620Z,79.4
2018-05-09T12:37:08.369Z,79.3
2018-05-09T12:37:58.394Z,79.3
2018-05-09T12:38:48.269Z,79.3
2018-05-09T12:39:38.010Z,79.3
2018-05-09T12:40:28.624Z,79.3
2018-05-09T12:41:18.437Z,79.2
2018-05-09T12:42:08.791Z,79.2
2018-05-09T12:42:58.286Z,79.2
2018-05-09T12:43:48.634Z,79.1
2018-05-09T12:44:38.427Z,79.1
2018-05-09T12:45:28.743Z,79.1
2018-05-09T12:46:18.755Z,79.1
2018-05-09T12:47:08.837Z,79
2018-05-09T12:47:59.218Z,79
2018-05-09T12:48:51.620Z,79
2018-05-09T12:49:38.511Z,78.9
2018-05-09T12:50:28.911Z,78.9
2018-05-09T12:51:18.634Z,78.9
2018-05-09T12:52:09.023Z,78.9
2018-05-09T12:52:58.436Z,78.8
2018-05-09T12:53:49.689Z,78.8
2018-05-09T12:54:40.601Z,78.8
2018-05-09T12:55:29.804Z,78.7
2018-05-09T12:56:19.834Z,78.6
2018-05-09T12:57:09.884Z,78.6
2018-05-09T12:57:59.968Z,78.6
2018-05-09T12:58:49.776Z,78.5
2018-05-09T12:59:40.069Z,78.5
2018-05-09T13:00:31.336Z,78.4
2018-05-09T13:01:19.681Z,78.4
2018-05-09T13:02:09.756Z,78.4
2018-05-09T13:02:59.564Z,78.4
2018-05-09T13:03:49.878Z,78.3
2018-05-09T13:04:40.549Z,78.3
2018-05-09T13:05:30.562Z,78.2
2018-05-09T13:06:20.682Z,78.1
2018-05-09T13:07:10.505Z,78.1
2018-05-09T13:07:59.720Z,78.1
2018-05-09T13:08:50.291Z,78
2018-05-09T13:09:40.347Z,77.9
2018-05-09T13:10:30.984Z,77.9
2018-05-09T13:11:20.823Z,77.8
2018-05-09T13:12:10.517Z,77.8
2018-05-09T13:13:01.175Z,77.7